Time;durP1;ratioP1;P1;durP2;ratioP2;P2;SDS_P1;SDS_P2;PMS_P1;PMS_P2;Temp;Humidity;BMP_temperature;BMP_pressure;BME280_temperature;BME280_humidity;BME280_pressure;Samples;Min_cycle;Max_cycle;Signal;HPM_P1;HPM_P2
2022/03/13 00:00:46;;;;;;;3.83;2.70;;;-2.20;1.40;;;-1.60;79.96;95344.34;648679;216;31552;-74
2022/03/13 00:03:28;;;;;;;3.25;2.58;;;-2.20;1.40;;;-1.64;80.31;95346.05;647170;212;32584;-73
2022/03/13 00:06:09;;;;;;;7.20;2.92;;;-2.30;1.40;;;-1.65;83.10;95346.97;648446;216;32201;-75
2022/03/13 00:08:52;;;;;;;4.00;2.70;;;-2.30;1.40;;;-1.50;81.86;95342.75;635568;212;36508;-74
2022/03/13 00:11:38;;;;;;;4.50;2.00;;;-2.30;1.40;;;-1.65;82.23;95343.00;644789;216;31582;-76
2022/03/13 00:14:26;;;;;;;1.85;1.70;;;-2.40;1.40;;;-1.78;82.06;95342.94;648041;212;31668;-74
2022/03/13 00:17:15;;;;;;;1.90;1.60;;;-2.60;1.40;;;-1.76;85.41;95343.79;618962;222;32474;-75
2022/03/13 00:19:59;;;;;;;2.63;2.53;;;-2.50;1.40;;;-1.75;84.67;95338.01;648046;212;31560;-74
2022/03/13 00:22:43;;;;;;;1.80;1.50;;;-2.50;1.40;;;-1.69;82.17;95339.80;644529;212;31593;-72
2022/03/13 00:25:25;;;;;;;2.83;2.12;;;-2.40;1.40;;;-1.74;84.00;95344.41;648488;212;31563;-74
2022/03/13 00:28:07;;;;;;;4.07;3.10;;;-2.50;1.40;;;-1.84;83.06;95345.14;650154;216;31648;-74
2022/03/13 00:30:55;;;;;;;2.05;1.83;;;-2.50;1.40;;;-1.90;83.90;95344.17;648666;212;31542;-76
2022/03/13 00:35:52;;;;;;;2.08;1.87;;;-2.50;1.40;;;-1.79;85.94;95341.11;648692;212;31563;-76
2022/03/13 00:38:34;;;;;;;2.00;1.90;;;-2.50;1.40;;;-1.86;85.02;95342.08;651643;212;31564;-76
2022/03/13 00:41:18;;;;;;;5.78;3.25;;;-2.60;1.40;;;-1.72;88.94;95343.23;647787;212;31598;-74
2022/03/13 00:43:59;;;;;;;3.65;1.70;;;-2.30;1.40;;;-1.67;90.35;95342.38;651996;216;31648;-74
2022/03/13 00:46:47;;;;;;;5.37;2.83;;;-2.10;1.40;;;-1.62;89.12;95340.52;648930;216;31597;-75
2022/03/13 00:49:35;;;;;;;9.77;2.22;;;-2.20;1.40;;;-1.62;87.92;95338.27;654506;216;42211;-75
2022/03/13 00:52:23;;;;;;;3.55;2.35;;;-2.50;1.40;;;-1.84;86.38;95334.19;652565;216;32488;-75
2022/03/13 00:55:07;;;;;;;5.60;2.87;;;-2.60;1.40;;;-1.89;86.42;95331.28;645049;216;31570;-73
2022/03/13 00:57:49;;;;;;;4.87;2.42;;;-2.70;1.40;;;-1.91;87.91;95329.37;625975;222;32474;-72
2022/03/13 01:00:37;;;;;;;2.58;2.35;;;-2.70;1.40;;;-1.98;87.23;95329.31;650647;216;31561;-76
2022/03/13 01:03:30;;;;;;;2.22;2.03;;;-2.70;1.40;;;-1.78;88.67;95328.47;648746;216;42196;-75
2022/03/13 01:06:13;;;;;;;4.10;2.70;;;-2.50;1.40;;;-1.92;86.96;95314.95;651572;212;31607;-76
2022/03/13 01:08:56;;;;;;;3.87;2.95;;;-2.60;1.40;;;-1.94;86.18;95325.70;635321;220;31741;-74
2022/03/13 01:11:44;;;;;;;2.40;2.20;;;-2.60;1.40;;;-2.06;86.57;95319.69;647846;212;31507;-76
2022/03/13 01:14:29;;;;;;;2.67;2.30;;;-2.70;1.40;;;-2.05;87.61;95320.36;646185;216;31606;-76
2022/03/13 01:17:11;;;;;;;2.37;1.70;;;-2.70;1.40;;;-1.96;87.89;95315.55;650838;216;31575;-76
2022/03/13 01:19:56;;;;;;;3.97;2.10;;;-2.70;1.40;;;-2.09;88.14;95311.01;651222;212;31567;-76
2022/03/13 01:22:39;;;;;;;2.53;1.58;;;-2.80;1.40;;;-2.10;88.46;95306.42;616867;222;32492;-73
2022/03/13 01:25:28;;;;;;;3.17;2.25;;;-2.70;1.40;;;-2.10;90.04;95309.03;649601;216;31584;-76
2022/03/13 01:28:11;;;;;;;2.50;2.25;;;-2.70;1.40;;;-2.11;90.29;95303.22;651027;216;32219;-75
2022/03/13 01:31:00;;;;;;;4.80;3.05;;;-2.80;1.40;;;-2.08;92.16;95301.91;649229;216;31574;-76
2022/03/13 01:35:51;;;;;;;5.22;2.12;;;-2.90;1.40;;;-2.16;91.75;95293.59;648677;216;31555;-76
2022/03/13 01:38:39;;;;;;;2.30;1.65;;;-2.90;1.40;;;-2.12;93.92;95288.53;649955;212;32222;-74
2022/03/13 01:41:21;;;;;;;1.40;1.30;;;-2.90;1.40;;;-2.23;92.32;95290.99;651462;212;31668;-73
2022/03/13 01:44:09;;;;;;;2.78;1.40;;;-3.00;1.40;;;-2.24;90.89;95297.88;647206;212;31585;-76
2022/03/13 01:46:51;;;;;;;2.15;1.95;;;-3.00;1.40;;;-2.23;90.14;95289.61;620728;222;32063;-76
2022/03/13 01:49:38;;;;;;;1.67;1.55;;;-3.00;1.40;;;-2.33;94.14;95294.63;645653;216;31690;-75
2022/03/13 01:52:26;;;;;;;2.47;1.67;;;-3.00;1.40;;;-2.38;95.22;95293.70;646745;212;31549;-76
2022/03/13 01:55:10;;;;;;;2.50;2.30;;;-3.00;1.40;;;-2.33;93.24;95283.42;646648;216;31570;-72
2022/03/13 01:57:58;;;;;;;2.75;1.70;;;-3.00;1.40;;;-2.32;91.79;95285.80;646705;216;31712;-76
2022/03/13 02:00:46;;;;;;;1.75;1.50;;;-3.10;1.40;;;-2.44;93.44;95289.13;648057;216;31590;-72
2022/03/13 02:03:33;;;;;;;1.60;1.50;;;-3.20;1.40;;;-2.53;91.17;95293.84;647045;216;31684;-76
2022/03/13 02:06:15;;;;;;;1.92;1.48;;;-3.20;1.40;;;-2.49;92.07;95294.74;645638;216;31689;-76
2022/03/13 02:09:06;;;;;;;3.10;1.62;;;-3.20;1.40;;;-2.45;93.69;95304.39;647785;216;31620;-73
2022/03/13 02:11:51;;;;;;;2.47;2.28;;;-3.20;1.40;;;-2.53;94.41;95297.13;647491;216;31561;-75
2022/03/13 02:14:34;;;;;;;1.75;1.50;;;-3.20;1.40;;;-2.62;92.83;95296.17;646318;216;31592;-73
2022/03/13 02:17:28;;;;;;;1.73;1.62;;;-3.30;1.40;;;-2.66;94.80;95295.56;652318;216;31567;-75
2022/03/13 02:20:24;;;;;;;2.28;2.08;;;-3.30;1.40;;;-2.68;96.99;95301.92;618123;222;31905;-76
2022/03/13 02:23:16;;;;;;;3.53;3.03;;;-3.40;1.40;;;-2.69;95.93;95293.29;620895;226;32319;-73
2022/03/13 02:25:59;;;;;;;2.30;1.30;;;-3.30;1.40;;;-2.78;96.28;95287.50;648613;216;31607;-76
2022/03/13 02:28:44;;;;;;;1.30;1.20;;;-3.50;1.40;;;-2.80;97.49;95291.61;646783;216;31582;-75
2022/03/13 02:31:33;;;;;;;3.10;2.10;;;-3.60;1.40;;;-2.88;97.60;95293.18;620923;226;32077;-76
2022/03/13 02:35:55;;;;;;;2.70;1.80;;;-3.50;1.40;;;-2.84;96.49;95293.08;647469;216;32236;-74
2022/03/13 02:38:43;;;;;;;1.83;1.62;;;-3.50;1.40;;;-2.84;98.07;95289.64;648755;216;31527;-75
2022/03/13 02:41:34;;;;;;;1.42;1.25;;;-3.50;1.40;;;-2.89;99.51;95297.20;648945;216;31595;-73
2022/03/13 02:44:17;;;;;;;1.70;1.50;;;-3.50;1.40;;;-2.96;100.00;95291.92;645847;212;31537;-75
2022/03/13 02:47:01;;;;;;;2.47;1.95;;;-3.60;1.40;;;-2.88;99.14;95293.45;648029;216;31618;-74
2022/03/13 02:49:42;;;;;;;2.20;2.00;;;-3.60;1.40;;;-2.90;96.36;95290.87;647049;212;31616;-75
2022/03/13 02:52:30;;;;;;;1.30;1.20;;;-3.70;1.40;;;-2.97;98.53;95292.59;648261;216;31565;-76
2022/03/13 02:55:12;;;;;;;2.90;2.05;;;-3.70;1.40;;;-3.01;99.31;95294.45;647470;212;31547;-76
2022/03/13 02:58:02;;;;;;;4.03;1.92;;;-3.70;1.40;;;-3.07;99.44;95294.50;647138;216;31610;-73
2022/03/13 03:00:50;;;;;;;1.62;1.10;;;-3.80;1.40;;;-3.14;100.00;95295.27;652647;216;31546;-76
2022/03/13 03:03:32;;;;;;;2.80;1.80;;;-3.90;1.40;;;-3.01;100.00;95308.73;647291;212;31612;-75
2022/03/13 03:06:20;;;;;;;1.37;1.27;;;-3.70;1.40;;;-2.96;100.00;95307.55;618012;222;32073;-74
2022/03/13 03:09:11;;;;;;;2.00;1.60;;;-3.40;1.40;;;-2.99;100.00;95300.44;649535;212;31595;-74
2022/03/13 03:12:00;;;;;;;1.50;1.40;;;-3.50;1.40;;;-3.09;100.00;95311.16;648025;216;32250;-75
2022/03/13 03:14:46;;;;;;;2.10;1.90;;;-3.60;1.40;;;-3.22;100.00;95312.98;619094;222;32276;-76
2022/03/13 03:17:34;;;;;;;2.50;1.55;;;-3.70;1.40;;;-3.21;100.00;95319.48;648039;212;31651;-74
2022/03/13 03:20:15;;;;;;;4.78;2.05;;;-3.80;1.40;;;-3.25;100.00;95308.44;619520;226;31876;-74
2022/03/13 03:22:57;;;;;;;2.65;1.60;;;-3.80;1.40;;;-3.27;100.00;95302.87;647557;212;31596;-74
2022/03/13 03:25:54;;;;;;;2.45;1.85;;;-3.70;1.40;;;-3.16;100.00;95308.64;627413;213;31967;-75
2022/03/13 03:28:36;;;;;;;1.45;1.35;;;-3.70;1.40;;;-3.13;100.00;95306.58;624574;226;31990;-75
2022/03/13 03:31:21;;;;;;;4.40;1.80;;;-3.70;1.40;;;-3.16;100.00;95306.30;648095;216;31570;-75
2022/03/13 03:35:51;;;;;;;1.70;1.30;;;-3.60;1.40;;;-3.21;100.00;95305.42;616027;226;32061;-75
2022/03/13 03:38:33;;;;;;;2.00;1.70;;;-3.80;1.40;;;-3.28;100.00;95310.12;652605;212;31609;-76
2022/03/13 03:41:17;;;;;;;4.80;2.22;;;-3.90;1.40;;;-3.32;100.00;95310.69;618893;221;31747;-74
2022/03/13 03:43:59;;;;;;;3.30;1.48;;;-4.00;1.40;;;-3.17;100.00;95314.45;628197;220;31583;-76
2022/03/13 03:46:47;;;;;;;1.70;1.05;;;-3.60;1.40;;;-3.13;100.00;95309.98;620314;225;31912;-73
2022/03/13 03:49:42;;;;;;;1.70;1.60;;;-3.50;1.40;;;-3.04;100.00;95313.77;649293;216;31548;-74
2022/03/13 03:52:30;;;;;;;3.03;2.05;;;-3.50;1.40;;;-3.01;100.00;95315.34;647433;216;42824;-74
2022/03/13 03:55:18;;;;;;;3.15;1.35;;;-3.40;1.40;;;-2.97;100.00;95313.53;650924;216;31531;-74
2022/03/13 03:58:01;;;;;;;1.00;1.00;;;-3.30;1.40;;;-2.96;100.00;95318.43;649608;216;42171;-74
2022/03/13 04:00:50;;;;;;;2.85;1.95;;;-3.40;1.40;;;-2.96;100.00;95319.34;646589;212;31550;-75
2022/03/13 04:03:32;;;;;;;6.57;1.87;;;-3.50;1.40;;;-2.99;100.00;95321.28;645387;216;31540;-75
2022/03/13 04:06:15;;;;;;;4.70;1.58;;;-3.50;1.40;;;-3.02;100.00;95318.13;648898;216;31522;-76
2022/03/13 04:09:00;;;;;;;5.70;2.20;;;-3.40;1.40;;;-2.94;100.00;95324.26;648467;216;31702;-74
2022/03/13 04:11:43;;;;;;;1.70;1.30;;;-3.40;1.40;;;-3.00;100.00;95327.52;649598;212;31542;-75
2022/03/13 04:14:28;;;;;;;1.45;1.10;;;-3.50;1.40;;;-3.00;100.00;95329.65;649078;216;32220;-75
2022/03/13 04:17:13;;;;;;;2.05;1.40;;;-3.40;1.40;;;-3.07;100.00;95329.18;653720;216;31748;-74
2022/03/13 04:19:55;;;;;;;2.45;2.25;;;-3.60;1.40;;;-3.18;100.00;95333.28;620113;222;31873;-74
2022/03/13 04:22:38;;;;;;;3.20;2.03;;;-3.90;1.40;;;-3.30;100.00;95333.17;655456;212;42195;-75
2022/03/13 04:25:19;;;;;;;3.10;1.70;;;-4.00;1.40;;;-3.35;100.00;95336.65;626046;226;31915;-75
2022/03/13 04:28:04;;;;;;;3.50;1.45;;;-4.00;1.40;;;-3.27;100.00;95333.55;620717;222;32014;-75
2022/03/13 04:30:52;;;;;;;1.65;1.55;;;-3.90;1.40;;;-3.48;100.00;95335.84;649697;216;31583;-75
2022/03/13 04:35:58;;;;;;;0.98;0.98;;;-4.00;1.40;;;-3.46;100.00;95338.66;642508;216;31584;-76
2022/03/13 04:38:55;;;;;;;2.45;1.20;;;-4.00;1.40;;;-3.48;100.00;95334.10;620439;226;32110;-74
2022/03/13 04:52:09;;;;;;;3.05;1.83;;;-4.10;1.40;;;-3.52;100.00;95348.11;647940;216;31611;-73
2022/03/13 04:54:54;;;;;;;1.65;1.55;;;-4.10;1.40;;;-3.58;100.00;95346.05;651490;212;31578;-75
2022/03/13 05:08:10;;;;;;;1.00;0.80;;;-4.80;1.40;;;-4.20;100.00;95355.03;639261;212;31669;-75
2022/03/13 05:13:32;;;;;;;1.50;1.00;;;-4.60;1.40;;;-4.21;100.00;95357.55;619821;222;31901;-73
2022/03/13 05:16:18;;;;;;;4.93;1.83;;;-4.70;1.40;;;-4.31;100.00;95356.14;640077;222;31700;-75
2022/03/13 05:19:07;;;;;;;6.30;1.55;;;-4.70;1.40;;;-4.24;100.00;95356.61;620211;222;32067;-73
2022/03/13 05:21:49;;;;;;;3.95;1.80;;;-4.70;1.40;;;-4.17;100.00;95361.64;648402;216;31583;-75
2022/03/13 05:24:30;;;;;;;1.35;1.25;;;-4.60;1.40;;;-4.07;100.00;95366.02;644204;212;31582;-73
2022/03/13 05:27:12;;;;;;;1.40;1.30;;;-4.50;1.40;;;-3.98;100.00;95369.08;648359;212;31571;-74
2022/03/13 05:29:54;;;;;;;1.33;1.20;;;-4.30;1.40;;;-3.91;100.00;95373.45;650304;212;31818;-73
2022/03/13 05:32:35;;;;;;;1.20;1.00;;;-4.30;1.40;;;-3.99;100.00;95372.84;620194;225;42464;-73
2022/03/13 05:35:55;;;;;;;4.18;1.55;;;-4.50;1.40;;;-3.90;100.00;95380.78;638536;221;31826;-74
2022/03/13 05:49:13;;;;;;;2.70;2.15;;;-4.40;1.40;;;-3.91;100.00;95389.37;647752;212;31505;-74
2022/03/13 05:52:00;;;;;;;1.10;1.10;;;-4.50;1.40;;;-3.92;100.00;95392.50;622538;226;31873;-75
2022/03/13 05:54:50;;;;;;;2.80;1.10;;;-4.40;1.40;;;-3.81;100.00;95390.23;620551;226;32929;-74
2022/03/13 05:57:35;;;;;;;2.17;1.65;;;-4.30;1.40;;;-3.56;100.00;95395.55;618145;226;31909;-73
2022/03/13 06:00:26;;;;;;;1.80;1.20;;;-4.10;1.40;;;-3.49;100.00;95394.27;651186;212;31630;-74
2022/03/13 06:03:17;;;;;;;2.40;2.00;;;-3.90;1.40;;;-3.45;100.00;95396.33;647772;212;32147;-73
2022/03/13 06:06:09;;;;;;;2.60;1.90;;;-3.90;1.40;;;-3.36;100.00;95400.92;620381;222;31958;-76
2022/03/13 06:08:57;;;;;;;2.12;1.65;;;-3.90;1.40;;;-3.24;100.00;95405.70;643282;216;31554;-73
2022/03/13 06:11:42;;;;;;;2.40;2.20;;;-3.80;1.40;;;-3.23;100.00;95407.25;649757;212;31542;-72
2022/03/13 06:14:33;;;;;;;2.83;1.65;;;-3.70;1.40;;;-3.14;100.00;95412.39;649695;212;42172;-75
2022/03/13 06:17:24;;;;;;;1.70;1.08;;;-3.80;1.40;;;-3.03;100.00;95401.31;621073;226;42693;-72
2022/03/13 06:20:10;;;;;;;5.90;3.00;;;-3.70;1.40;;;-2.88;100.00;95404.55;646533;216;31566;-75
2022/03/13 06:22:58;;;;;;;2.03;1.87;;;-3.60;1.40;;;-2.69;100.00;95405.41;648369;212;31549;-76
2022/03/13 06:25:44;;;;;;;1.67;1.50;;;-3.50;1.40;;;-2.67;100.00;95407.25;648123;216;32012;-73
2022/03/13 06:28:28;;;;;;;4.60;2.30;;;-3.40;1.40;;;-2.48;100.00;95410.83;650355;216;42179;-74
2022/03/13 06:31:11;;;;;;;2.70;1.42;;;-3.20;1.40;;;-2.46;100.00;95406.49;648776;216;31590;-73
2022/03/13 06:35:57;;;;;;;2.10;1.40;;;-2.90;1.40;;;-2.34;100.00;95405.39;646379;216;42216;-75
2022/03/13 06:38:40;;;;;;;3.20;2.90;;;-2.70;1.40;;;-2.18;100.00;95406.73;648617;216;31590;-74
2022/03/13 06:41:22;;;;;;;2.47;2.12;;;-2.50;1.40;;;-1.96;100.00;95408.55;648500;216;31567;-74
2022/03/13 06:44:10;;;;;;;1.90;1.50;;;-2.50;1.40;;;-1.77;100.00;95405.23;622646;226;32126;-76
2022/03/13 06:46:51;;;;;;;2.30;1.70;;;-2.30;1.40;;;-1.57;100.00;95401.16;646665;212;31583;-75
2022/03/13 06:49:33;;;;;;;3.30;2.50;;;-2.20;1.40;;;-1.43;100.00;95405.99;648976;212;31703;-76
2022/03/13 06:52:21;;;;;;;2.03;1.90;;;-2.00;1.40;;;-1.18;100.00;95407.11;645310;216;31619;-74
2022/03/13 06:55:07;;;;;;;1.75;1.65;;;-1.90;1.40;;;-0.99;100.00;95410.59;646674;216;31621;-73
2022/03/13 06:57:49;;;;;;;3.58;2.10;;;-1.70;1.40;;;-0.86;98.10;95413.83;648324;216;31590;-74
2022/03/13 07:00:36;;;;;;;2.80;2.60;;;-1.40;1.40;;;-0.69;94.13;95408.23;649777;216;31602;-76
2022/03/13 07:03:24;;;;;;;2.50;2.30;;;-1.30;1.40;;;-0.43;91.47;95408.10;653795;212;31556;-76
2022/03/13 07:06:15;;;;;;;1.60;1.50;;;-1.10;1.40;;;-0.30;89.98;95410.03;648272;216;31499;-76
2022/03/13 07:09:02;;;;;;;2.40;2.20;;;-0.90;1.40;;;-0.19;87.82;95416.09;647206;216;31605;-74
2022/03/13 07:11:47;;;;;;;5.55;2.70;;;-0.80;1.40;;;0.05;87.82;95417.91;646079;216;31588;-75
2022/03/13 07:14:33;;;;;;;3.12;2.42;;;-0.60;1.40;;;0.28;88.01;95419.21;619598;224;31870;-76
2022/03/13 07:17:22;;;;;;;5.35;3.25;;;-0.50;1.40;;;0.51;87.32;95422.17;643781;216;31768;-75
2022/03/13 07:20:05;;;;;;;5.45;3.60;;;-0.30;1.40;;;0.77;86.05;95422.16;632735;221;31885;-74
2022/03/13 07:22:46;;;;;;;4.32;3.75;;;0.00;1.40;;;0.97;84.49;95420.92;643760;216;31768;-73
2022/03/13 07:25:43;;;;;;;3.35;2.30;;;0.20;1.40;;;0.98;81.87;95426.59;647463;212;31583;-75
2022/03/13 07:28:31;;;;;;;3.10;2.90;;;0.30;1.40;;;1.35;82.14;95424.66;647409;216;32119;-75
2022/03/13 07:31:19;;;;;;;2.97;2.23;;;0.50;1.40;;;1.63;81.94;95420.92;644822;216;42824;-76
2022/03/13 07:35:55;;;;;;;3.53;3.22;;;0.90;1.40;;;1.79;82.78;95425.41;649297;216;31583;-76
2022/03/13 07:38:41;;;;;;;3.45;3.15;;;1.10;1.40;;;1.97;82.67;95422.38;646959;216;31781;-75
2022/03/13 07:41:27;;;;;;;3.03;2.62;;;1.30;1.40;;;2.06;82.34;95411.75;646705;212;31987;-76
2022/03/13 07:44:10;;;;;;;3.00;2.80;;;1.40;1.40;;;2.25;82.44;95412.23;646643;212;31547;-76
2022/03/13 07:47:06;;;;;;;3.00;2.40;;;1.50;1.40;;;2.62;81.17;95415.66;650998;212;31582;-76
2022/03/13 07:49:57;;;;;;;3.47;2.60;;;1.80;1.40;;;2.85;80.21;95411.37;651806;216;42149;-75
2022/03/13 07:52:37;;;;;;;3.10;2.80;;;2.10;1.40;;;3.17;79.74;95408.91;619256;226;32139;-75
2022/03/13 07:55:21;;;;;;;5.35;3.30;;;2.20;1.40;;;3.33;79.16;95407.65;648008;212;31603;-76
2022/03/13 07:58:02;;;;;;;3.87;3.22;;;2.40;1.40;;;3.55;78.24;95406.58;648136;212;32006;-76
2022/03/13 08:00:45;;;;;;;4.60;2.95;;;2.60;1.40;;;3.50;76.65;95410.71;645086;212;32184;-75
2022/03/13 08:03:35;;;;;;;4.55;3.17;;;2.70;1.40;;;3.67;75.74;95409.20;646895;212;31602;-75
2022/03/13 08:06:11;;;;;;;5.18;3.90;;;2.90;1.40;;;3.79;75.59;95407.94;649452;212;31562;-75
2022/03/13 08:08:54;;;;;;;5.30;3.47;;;3.00;1.40;;;3.91;75.03;95409.88;646936;212;31563;-75
2022/03/13 08:11:36;;;;;;;3.40;3.03;;;3.20;1.40;;;4.05;74.28;95405.31;646912;216;31768;-76
2022/03/13 08:14:17;;;;;;;4.95;3.17;;;3.40;1.40;;;4.33;74.01;95405.26;651867;212;31620;-75
2022/03/13 08:16:59;;;;;;;3.37;2.55;;;3.60;1.40;;;4.77;73.99;95403.73;648678;212;31555;-76
2022/03/13 08:19:41;;;;;;;3.60;3.30;;;3.80;1.40;;;5.03;73.41;95397.11;617596;222;31929;-75
2022/03/13 08:22:26;;;;;;;3.70;3.40;;;3.90;1.40;;;5.15;72.05;95397.63;630733;221;31719;-75
2022/03/13 08:25:11;;;;;;;4.60;3.17;;;4.10;1.40;;;5.40;71.76;95401.39;647437;212;31584;-75
2022/03/13 08:27:52;;;;;;;4.90;3.70;;;4.30;1.40;;;5.46;68.62;95398.78;630686;222;31819;-75
2022/03/13 08:30:37;;;;;;;3.70;3.40;;;4.50;1.40;;;5.67;68.23;95400.73;618343;222;32329;-75
2022/03/13 08:35:51;;;;;;;4.25;3.17;;;5.00;1.40;;;5.94;65.94;95396.20;646124;212;31552;-76
2022/03/13 08:38:33;;;;;;;6.55;3.25;;;5.20;1.40;;;6.33;66.22;95391.45;645683;212;31632;-76
2022/03/13 08:41:15;;;;;;;5.72;4.15;;;5.60;1.40;;;6.46;64.99;95401.70;647910;212;31666;-75
2022/03/13 08:43:58;;;;;;;6.50;4.53;;;5.60;1.40;;;6.58;64.25;95395.13;617438;226;32223;-75
2022/03/13 08:46:41;;;;;;;5.10;3.80;;;5.80;1.40;;;6.83;65.46;95393.61;644456;216;31665;-76
2022/03/13 08:49:23;;;;;;;5.65;4.00;;;6.10;1.40;;;7.23;63.06;95387.59;648445;216;42284;-76
2022/03/13 08:52:11;;;;;;;5.70;4.35;;;6.50;1.40;;;7.59;62.23;95389.41;646750;216;31636;-74
2022/03/13 08:55:00;;;;;;;5.10;3.40;;;6.90;1.40;;;8.19;62.27;95389.11;646399;212;32070;-75
2022/03/13 08:57:46;;;;;;;4.72;4.32;;;7.50;1.40;;;8.43;58.00;95390.61;645424;212;31544;-75
2022/03/13 09:00:29;;;;;;;7.22;4.43;;;7.80;1.40;;;8.76;56.88;95386.33;651647;212;31590;-76
2022/03/13 09:03:14;;;;;;;7.40;4.07;;;8.10;1.40;;;9.15;56.76;95381.47;652953;212;32274;-75
2022/03/13 09:05:58;;;;;;;6.50;4.28;;;8.60;1.40;;;9.95;54.81;95379.69;646291;212;31590;-76
2022/03/13 09:08:40;;;;;;;6.75;4.68;;;9.50;1.40;;;11.37;51.09;95381.94;646873;212;31576;-77
2022/03/13 09:11:23;;;;;;;5.33;3.87;;;11.80;1.40;;;13.11;45.60;95373.30;648513;212;31573;-75
2022/03/13 09:14:05;;;;;;;6.80;4.47;;;15.50;1.40;;;15.49;42.23;95370.00;645782;214;42338;-76
2022/03/13 09:16:56;;;;;;;6.60;4.57;;;17.70;1.40;;;18.48;40.37;95364.23;647754;212;31580;-76
2022/03/13 09:19:41;;;;;;;7.40;4.70;;;18.10;1.40;;;19.05;37.04;95363.81;647374;216;31548;-76
2022/03/13 09:22:25;;;;;;;6.95;5.00;;;18.50;1.40;;;19.20;34.07;95365.28;621212;222;32427;-75
2022/03/13 09:25:06;;;;;;;7.85;5.20;;;18.80;1.40;;;21.11;33.69;95358.24;648681;212;32142;-74
2022/03/13 09:27:52;;;;;;;8.65;5.80;;;17.80;1.40;;;22.64;36.33;95352.63;645317;216;31627;-76
2022/03/13 09:30:34;;;;;;;6.43;4.80;;;20.00;1.40;;;24.65;35.93;95355.50;645091;212;31578;-75
2022/03/13 09:35:57;;;;;;;6.97;5.25;;;20.10;1.40;;;22.67;32.03;95363.13;647583;212;34338;-75
2022/03/13 09:38:42;;;;;;;5.65;4.95;;;19.60;1.40;;;24.79;27.32;95360.83;648603;216;31756;-76
2022/03/13 09:41:24;;;;;;;7.15;6.20;;;21.10;1.40;;;24.69;27.33;95359.36;649458;212;31701;-76
2022/03/13 09:44:06;;;;;;;6.62;5.15;;;21.00;99.90;;;25.51;28.33;95353.52;649570;216;31573;-75
2022/03/13 09:46:48;;;;;;;8.40;5.43;;;20.70;1.40;;;25.34;32.25;95353.60;618836;222;31897;-74
2022/03/13 09:49:30;;;;;;;7.07;5.53;;;20.80;99.90;;;27.07;27.21;95348.02;617335;225;31899;-74
2022/03/13 09:52:11;;;;;;;7.12;5.20;;;21.80;99.90;;;26.58;28.21;95348.11;652223;213;31549;-75
2022/03/13 09:54:53;;;;;;;7.62;5.68;;;22.20;99.90;;;26.77;27.19;95344.33;646715;212;43455;-74
2022/03/13 09:57:39;;;;;;;7.85;5.25;;;21.60;99.90;;;28.04;27.85;95339.39;645296;216;31553;-75
2022/03/13 10:00:21;;;;;;;6.40;5.20;;;22.00;99.90;;;29.05;24.04;95336.48;646539;212;31632;-75
2022/03/13 10:03:05;;;;;;;7.25;6.12;;;21.20;99.90;;;27.32;24.82;95341.75;648466;212;31642;-75
2022/03/13 10:05:45;;;;;;;6.82;5.22;;;21.60;99.90;;;27.59;24.81;95335.20;646675;212;31598;-75
2022/03/13 10:08:27;;;;;;;6.53;5.20;;;22.50;99.90;;;27.89;21.92;95331.78;648673;212;31627;-76
2022/03/13 10:11:12;;;;;;;7.00;5.17;;;21.60;99.90;;;26.16;23.35;95336.37;619365;226;32241;-75
2022/03/13 10:13:53;;;;;;;5.45;4.93;;;22.00;99.90;;;29.16;22.12;95324.58;646333;212;31625;-75
2022/03/13 10:16:35;;;;;;;6.20;5.05;;;22.30;99.90;;;28.48;24.11;95328.21;624154;226;32051;-75
2022/03/13 10:19:17;;;;;;;6.05;5.22;;;22.70;99.90;;;26.78;27.24;95325.23;617806;225;32074;-75
2022/03/13 10:22:06;;;;;;;7.82;5.53;;;22.30;99.90;;;26.25;23.11;95326.44;645088;216;32579;-76
2022/03/13 10:24:50;;;;;;;6.32;5.70;;;21.40;99.90;;;28.76;21.65;95322.85;648599;216;32153;-75
2022/03/13 10:27:33;;;;;;;6.82;5.80;;;22.50;99.90;;;26.36;25.74;95322.58;652337;212;42824;-74
2022/03/13 10:30:15;;;;;;;6.37;5.35;;;22.00;99.90;;;29.75;22.12;95319.14;646354;216;32290;-74
2022/03/13 10:33:00;;;;;;;7.25;5.28;;;23.70;99.90;;;30.92;22.10;95312.43;621243;226;32244;-75
2022/03/13 10:35:51;;;;;;;8.70;5.68;;;23.80;99.90;;;30.26;21.80;95312.31;645792;216;42357;-75
2022/03/13 10:38:34;;;;;;;5.85;5.10;;;23.40;99.90;;;30.47;20.67;95310.31;651987;216;31735;-76
2022/03/13 10:41:42;;;;;;;6.15;5.55;;;23.70;99.90;;;29.33;22.02;95311.28;644599;216;31742;-75
2022/03/13 10:44:15;;;;;;;6.40;5.70;;;23.30;99.90;;;28.23;21.24;95316.62;645525;212;31762;-75
2022/03/13 10:46:58;;;;;;;6.70;6.00;;;23.30;99.90;;;29.16;22.26;95306.84;620095;222;32050;-75
2022/03/13 10:49:44;;;;;;;6.87;5.50;;;23.50;99.90;;;31.54;20.01;95303.75;650608;212;31571;-75
2022/03/13 10:52:31;;;;;;;7.20;5.90;;;24.00;99.90;;;33.07;18.94;95297.92;648748;216;31733;-75
2022/03/13 10:55:16;;;;;;;7.60;5.80;;;24.90;99.90;;;26.75;21.12;95308.84;618848;222;32801;-75
2022/03/13 10:57:59;;;;;;;6.70;5.60;;;23.10;99.90;;;29.42;20.27;95309.39;646839;216;31611;-75
2022/03/13 11:00:40;;;;;;;5.80;5.20;;;21.20;99.90;;;29.24;20.43;95307.52;646214;216;31582;-76
2022/03/13 11:03:22;;;;;;;7.55;5.80;;;22.80;99.90;;;29.88;20.20;95307.38;648219;216;31786;-74
2022/03/13 11:06:04;;;;;;;7.03;5.28;;;23.40;99.90;;;29.06;20.68;95304.77;648916;212;31650;-75
2022/03/13 11:08:50;;;;;;;6.15;5.07;;;23.50;99.90;;;23.61;22.22;95309.23;644654;216;31729;-75
2022/03/13 11:11:34;;;;;;;6.00;5.50;;;20.40;99.90;;;27.69;21.67;95298.55;648595;216;31594;-76
2022/03/13 11:16:48;;;;;;;6.40;5.37;;;23.00;99.90;;;27.89;21.38;95296.16;651141;216;31949;-75
2022/03/13 11:19:30;;;;;;;6.85;5.30;;;23.50;99.90;;;30.73;19.83;95283.37;648022;212;31724;-75
2022/03/13 11:22:12;;;;;;;6.82;5.80;;;24.50;99.90;;;29.38;21.08;95287.11;646315;216;42252;-75
2022/03/13 11:24:54;;;;;;;6.07;5.37;;;24.30;99.90;;;32.00;18.97;95276.81;648700;216;43059;-75
2022/03/13 11:27:40;;;;;;;6.70;5.80;;;25.10;99.90;;;32.14;18.48;95275.52;644400;216;31605;-74
2022/03/13 11:30:32;;;;;;;7.03;5.53;;;24.60;99.90;;;32.73;18.83;95271.97;647953;216;31618;-75
2022/03/13 11:35:52;;;;;;;6.12;5.53;;;25.30;99.90;;;30.76;18.59;95271.69;647276;212;31771;-75
2022/03/13 11:38:38;;;;;;;6.70;5.62;;;23.80;99.90;;;26.76;19.93;95276.19;647358;212;32151;-74
2022/03/13 11:41:20;;;;;;;7.07;5.70;;;22.50;99.90;;;29.26;20.62;95272.54;621818;222;32001;-75
2022/03/13 11:44:04;;;;;;;5.60;5.10;;;23.80;99.90;;;28.61;20.92;95271.85;645282;216;31545;-76
2022/03/13 11:46:47;;;;;;;6.75;5.78;;;23.10;99.90;;;31.69;18.97;95261.83;618930;225;31964;-76
2022/03/13 11:49:38;;;;;;;5.87;4.90;;;24.20;99.90;;;32.03;18.82;95253.13;620400;222;32051;-76
2022/03/13 11:52:28;;;;;;;7.80;4.87;;;24.60;99.90;;;31.98;18.26;95251.91;643662;212;31571;-75
2022/03/13 11:55:10;;;;;;;7.00;5.70;;;24.50;99.90;;;33.65;18.02;95248.36;647319;212;31679;-75
2022/03/13 11:57:51;;;;;;;6.53;5.50;;;25.30;99.90;;;30.70;18.46;95252.73;648167;216;42836;-75
2022/03/13 12:00:32;;;;;;;9.18;6.00;;;23.70;99.90;;;32.60;18.16;95242.89;622173;222;32214;-76
2022/03/13 12:03:17;;;;;;;7.20;5.50;;;24.30;99.90;;;32.72;17.85;95236.61;648273;212;31702;-75
2022/03/13 12:06:01;;;;;;;6.75;4.80;;;24.80;99.90;;;32.49;18.06;95233.23;620890;226;31981;-75
2022/03/13 12:11:39;;;;;;;6.07;5.20;;;24.70;99.90;;;33.39;17.77;95229.16;647580;212;31567;-75
2022/03/13 12:14:22;;;;;;;6.35;5.47;;;25.60;99.90;;;33.15;17.93;95223.91;645960;216;43657;-76
2022/03/13 12:17:08;;;;;;;5.97;4.90;;;25.40;99.90;;;31.83;18.48;95223.23;646497;212;31727;-75
2022/03/13 12:19:48;;;;;;;7.05;5.30;;;25.00;99.90;;;32.07;17.51;95221.51;646235;215;31645;-76
2022/03/13 12:22:32;;;;;;;4.90;4.50;;;24.50;99.90;;;33.01;17.23;95212.09;622742;225;32036;-75
2022/03/13 12:25:18;;;;;;;8.98;5.87;;;24.40;99.90;;;28.64;18.47;95219.23;648364;216;31872;-75
2022/03/13 12:28:01;;;;;;;6.95;6.15;;;22.30;99.90;;;27.79;20.25;95212.91;648680;212;31599;-76
2022/03/13 12:30:42;;;;;;;6.97;5.87;;;23.00;99.90;;;25.36;20.63;95219.22;645139;212;31799;-76
2022/03/13 12:35:57;;;;;;;6.65;5.43;;;22.00;99.90;;;29.27;19.66;95208.02;645022;216;42375;-75
2022/03/13 12:38:42;;;;;;;7.62;5.22;;;23.80;99.90;;;30.83;18.09;95205.77;650031;212;31569;-75
2022/03/13 12:41:21;;;;;;;5.70;4.50;;;25.10;99.90;;;31.56;17.35;95201.48;619259;222;31930;-75
2022/03/13 12:44:02;;;;;;;6.30;5.30;;;24.10;99.90;;;31.99;17.71;95193.41;653284;216;32096;-75